Time;durP1;ratioP1;P1;durP2;ratioP2;P2;SDS_P1;SDS_P2;PMS_P1;PMS_P2;Temp;Humidity;BMP_temperature;BMP_pressure;BME280_temperature;BME280_humidity;BME280_pressure;Samples;Min_cycle;Max_cycle;Signal;HPM_P1;HPM_P2
2021/05/13 00:01:25;;;;;;;60.67;40.93;;;10.10;99.90;;;;;;4995807;28;20188;-63
2021/05/13 00:03:52;;;;;;;60.10;40.80;;;10.10;99.90;;;;;;5000624;28;20193;-64
2021/05/13 00:06:18;;;;;;;59.00;38.10;;;10.10;99.90;;;;;;4993014;28;20168;-64
2021/05/13 00:08:44;;;;;;;55.10;37.70;;;10.00;99.90;;;;;;5005064;28;20176;-65
2021/05/13 00:11:11;;;;;;;61.27;38.53;;;10.00;99.90;;;;;;5010296;28;20222;-63
2021/05/13 00:13:39;;;;;;;56.07;38.93;;;10.00;99.90;;;;;;4993108;28;20697;-62
2021/05/13 00:16:06;;;;;;;56.43;40.53;;;9.90;99.90;;;;;;4992799;28;20670;-64
2021/05/13 00:18:32;;;;;;;52.57;38.63;;;9.90;99.90;;;;;;5012623;28;20653;-62
2021/05/13 00:20:58;;;;;;;60.97;39.67;;;9.80;99.90;;;;;;5012092;28;20626;-65
2021/05/13 00:23:25;;;;;;;58.60;40.37;;;10.00;99.90;;;;;;4993576;28;20185;-62
2021/05/13 00:25:51;;;;;;;55.30;37.27;;;9.60;99.90;;;;;;4992808;28;20177;-64
2021/05/13 00:28:18;;;;;;;59.53;39.97;;;9.70;99.90;;;;;;5009369;28;20187;-65
2021/05/13 00:30:44;;;;;;;60.10;40.70;;;9.50;99.90;;;;;;5012121;28;20522;-63
2021/05/13 00:33:11;;;;;;;59.77;40.83;;;9.50;99.90;;;;;;4996583;28;20192;-64
2021/05/13 00:35:37;;;;;;;65.80;40.50;;;9.50;99.90;;;;;;4992471;28;20274;-64
2021/05/13 00:38:04;;;;;;;64.03;40.40;;;9.40;99.90;;;;;;5005811;28;20172;-63
2021/05/13 00:40:29;;;;;;;64.20;40.90;;;9.50;99.90;;;;;;4998922;28;20642;-64
2021/05/13 00:42:55;;;;;;;68.50;40.80;;;9.40;99.90;;;;;;4992461;28;20180;-64
2021/05/13 00:45:21;;;;;;;69.70;40.30;;;9.30;99.90;;;;;;5001600;28;20222;-63
2021/05/13 00:48:01;;;;;;;64.50;39.97;;;9.20;99.90;;;;;;5012044;28;20175;-65
2021/05/13 00:50:28;;;;;;;73.47;42.57;;;9.10;99.90;;;;;;5001739;28;20185;-63
2021/05/13 00:52:54;;;;;;;70.90;41.53;;;9.10;99.90;;;;;;4992632;28;20186;-64
2021/05/13 00:55:20;;;;;;;70.33;44.03;;;9.10;99.90;;;;;;5000050;28;20215;-64
2021/05/13 00:57:50;;;;;;;67.83;40.27;;;9.10;99.90;;;;;;5011893;28;20172;-64
2021/05/13 01:02:58;;;;;;;74.70;42.57;;;9.00;99.90;;;;;;4992344;28;20200;-64
2021/05/13 01:05:26;;;;;;;86.87;44.87;;;8.90;99.90;;;;;;4999173;28;20669;-64
2021/05/13 01:07:51;;;;;;;84.23;45.60;;;8.80;99.90;;;;;;5006090;28;20188;-64
2021/05/13 01:10:18;;;;;;;87.63;47.97;;;8.80;99.90;;;;;;4991842;28;20184;-63
2021/05/13 01:12:44;;;;;;;93.30;48.60;;;8.80;99.90;;;;;;4995536;28;20249;-62
2021/05/13 01:15:33;;;;;;;92.87;48.47;;;8.70;99.90;;;;;;5011412;28;20211;-64
2021/05/13 01:20:26;;;;;;;104.43;49.97;;;8.70;99.90;;;;;;4991929;28;20263;-64
2021/05/13 01:22:56;;;;;;;93.17;49.00;;;8.70;99.90;;;;;;4995258;28;20168;-64
2021/05/13 01:25:21;;;;;;;90.70;47.33;;;8.60;99.90;;;;;;5009639;28;20211;-64
2021/05/13 01:27:47;;;;;;;88.63;47.70;;;8.70;99.90;;;;;;5009494;28;20175;-64
2021/05/13 01:30:15;;;;;;;93.73;48.07;;;8.60;99.90;;;;;;4991648;28;20212;-62
2021/05/13 01:32:41;;;;;;;103.53;50.13;;;8.60;99.90;;;;;;4992366;28;20551;-64
2021/05/13 01:35:07;;;;;;;96.23;48.63;;;8.60;99.90;;;;;;5011114;28;20208;-64
2021/05/13 01:37:33;;;;;;;104.63;49.30;;;8.60;99.90;;;;;;4993294;28;20181;-64
2021/05/13 01:39:58;;;;;;;95.47;48.20;;;8.50;99.90;;;;;;4991644;28;20200;-64
2021/05/13 01:42:24;;;;;;;96.00;50.23;;;8.50;99.90;;;;;;5007805;28;20186;-63
2021/05/13 01:44:49;;;;;;;102.77;49.57;;;8.50;99.90;;;;;;5011470;28;20196;-63
2021/05/13 01:47:15;;;;;;;105.53;50.43;;;8.40;99.90;;;;;;4996532;28;20655;-65
2021/05/13 01:49:41;;;;;;;102.37;51.03;;;8.40;99.90;;;;;;4991785;28;20181;-67
2021/05/13 01:52:06;;;;;;;107.83;52.80;;;8.40;99.90;;;;;;4992587;28;20196;-62
2021/05/13 01:54:32;;;;;;;105.33;50.20;;;8.40;99.90;;;;;;4991715;28;20629;-62
2021/05/13 01:57:05;;;;;;;97.60;49.77;;;8.40;99.90;;;;;;5005565;28;20556;-62
2021/05/13 01:59:31;;;;;;;107.97;51.13;;;8.40;99.90;;;;;;5011331;28;20510;-64
2021/05/13 02:02:00;;;;;;;108.20;51.67;;;8.40;99.90;;;;;;4997693;28;20231;-64
2021/05/13 02:04:27;;;;;;;110.03;50.93;;;8.40;99.90;;;;;;4990326;28;20197;-62
2021/05/13 02:06:52;;;;;;;111.00;51.60;;;8.30;99.90;;;;;;5003408;28;20184;-62
2021/05/13 02:09:18;;;;;;;113.47;53.03;;;8.30;99.90;;;;;;5011041;28;20226;-62
2021/05/13 02:11:44;;;;;;;109.00;52.53;;;8.30;99.90;;;;;;5000618;28;20181;-65
2021/05/13 02:14:10;;;;;;;111.60;51.93;;;8.20;99.90;;;;;;4991333;28;20594;-63
2021/05/13 02:16:35;;;;;;;104.27;50.30;;;8.20;99.90;;;;;;4999679;28;20180;-64
2021/05/13 02:19:01;;;;;;;114.93;52.57;;;8.20;99.90;;;;;;5011438;28;20176;-62
2021/05/13 02:21:26;;;;;;;106.57;49.73;;;8.20;99.90;;;;;;5008608;28;20179;-63
2021/05/13 02:23:52;;;;;;;110.03;51.77;;;8.20;99.90;;;;;;5014574;28;20200;-63
2021/05/13 02:26:20;;;;;;;113.20;51.77;;;8.20;99.90;;;;;;5005427;28;20211;-64
2021/05/13 02:28:48;;;;;;;110.50;52.17;;;8.20;99.90;;;;;;4997311;28;20713;-62
2021/05/13 02:31:15;;;;;;;113.57;51.67;;;8.20;99.90;;;;;;5013769;28;20255;-64
2021/05/13 02:33:41;;;;;;;102.07;49.63;;;8.40;99.90;;;;;;5012838;28;20261;-63
2021/05/13 02:36:08;;;;;;;105.90;49.10;;;8.30;99.90;;;;;;4994919;28;20244;-63
2021/05/13 02:38:35;;;;;;;105.43;48.90;;;8.20;99.90;;;;;;4994848;28;20251;-65
2021/05/13 02:41:01;;;;;;;101.63;49.77;;;8.20;99.90;;;;;;5013968;28;20638;-64
2021/05/13 02:43:27;;;;;;;106.60;49.67;;;8.30;99.90;;;;;;5014036;28;20180;-61
2021/05/13 02:45:52;;;;;;;105.30;48.73;;;8.20;99.90;;;;;;4996119;28;20583;-63
2021/05/13 02:48:18;;;;;;;105.27;47.60;;;8.20;99.90;;;;;;4994614;28;20268;-63
2021/05/13 02:50:43;;;;;;;98.30;47.13;;;8.20;99.90;;;;;;5010450;28;20741;-63
2021/05/13 02:53:12;;;;;;;114.87;50.93;;;8.20;99.90;;;;;;5014114;28;20188;-63
2021/05/13 02:55:37;;;;;;;111.40;52.50;;;8.20;99.90;;;;;;4998996;28;20213;-61
2021/05/13 02:58:04;;;;;;;103.87;51.03;;;8.20;99.90;;;;;;5006228;28;20188;-65
2021/05/13 03:01:04;;;;;;;104.23;49.13;;;8.20;99.90;;;;;;5013828;28;20164;-64
2021/05/13 03:03:30;;;;;;;99.67;48.20;;;8.20;99.90;;;;;;4998478;28;20181;-64
2021/05/13 03:05:55;;;;;;;104.03;46.77;;;8.10;99.90;;;;;;4994293;28;20191;-65
2021/05/13 03:08:21;;;;;;;91.23;44.83;;;8.00;99.90;;;;;;5007427;28;20210;-64
2021/05/13 03:10:47;;;;;;;95.23;43.73;;;8.00;99.90;;;;;;5013643;28;20183;-65
2021/05/13 03:13:20;;;;;;;92.33;42.47;;;8.10;99.90;;;;;;5000722;28;20260;-64
2021/05/13 03:15:46;;;;;;;84.90;42.70;;;8.10;99.90;;;;;;4994215;28;20212;-64
2021/05/13 03:18:11;;;;;;;89.63;44.20;;;8.10;99.90;;;;;;5004871;28;20310;-64
2021/05/13 03:20:41;;;;;;;81.50;41.67;;;8.10;99.90;;;;;;5013301;28;20267;-65
2021/05/13 03:23:10;;;;;;;80.57;40.47;;;8.10;99.90;;;;;;5003457;28;20177;-65
2021/05/13 03:25:37;;;;;;;86.07;42.20;;;8.20;99.90;;;;;;4993813;28;20196;-65
2021/05/13 03:28:08;;;;;;;89.43;43.47;;;8.20;99.90;;;;;;5002501;28;20228;-66
2021/05/13 03:30:42;;;;;;;91.23;44.80;;;8.10;99.90;;;;;;5013225;28;20172;-65
2021/05/13 03:33:08;;;;;;;104.40;47.10;;;8.20;99.90;;;;;;5004170;28;20636;-64
2021/05/13 03:35:35;;;;;;;99.40;46.77;;;8.10;99.90;;;;;;4993647;28;20220;-64
2021/05/13 03:38:02;;;;;;;107.40;46.60;;;8.00;99.90;;;;;;5000865;28;20172;-63
2021/05/13 03:40:30;;;;;;;102.17;46.63;;;8.00;99.90;;;;;;5005029;28;20180;-63
2021/05/13 03:42:56;;;;;;;109.10;48.00;;;7.90;99.90;;;;;;4999058;28;20187;-64
2021/05/13 03:45:22;;;;;;;111.57;48.90;;;7.90;99.90;;;;;;5004642;28;20707;-63
2021/05/13 03:47:48;;;;;;;113.83;49.67;;;8.00;99.90;;;;;;5013311;28;20168;-62
2021/05/13 03:50:14;;;;;;;125.43;51.20;;;8.00;99.90;;;;;;5008458;28;20184;-62
2021/05/13 03:52:40;;;;;;;113.40;49.30;;;8.00;99.90;;;;;;5013241;28;20684;-64
2021/05/13 03:55:06;;;;;;;108.27;47.97;;;8.00;99.90;;;;;;5000479;28;20208;-64
2021/05/13 03:57:32;;;;;;;98.03;44.37;;;8.00;99.90;;;;;;4993356;28;20180;-64
2021/05/13 04:00:00;;;;;;;93.27;42.83;;;8.00;99.90;;;;;;4994197;28;20181;-63
2021/05/13 04:02:32;;;;;;;91.50;43.47;;;8.00;99.90;;;;;;4993338;28;20207;-63
2021/05/13 04:04:58;;;;;;;95.67;44.63;;;8.00;99.90;;;;;;5012103;28;20215;-63
2021/05/13 04:07:27;;;;;;;98.60;43.63;;;8.00;99.90;;;;;;5012569;28;20188;-63
2021/05/13 04:09:55;;;;;;;96.20;44.60;;;8.10;99.90;;;;;;4994574;28;20659;-63
2021/05/13 04:12:21;;;;;;;90.63;43.53;;;8.10;99.90;;;;;;4991690;28;20220;-64
2021/05/13 04:14:46;;;;;;;95.47;43.37;;;8.10;99.90;;;;;;4994057;28;20205;-63
2021/05/13 04:17:12;;;;;;;95.37;45.03;;;8.10;99.90;;;;;;4993120;28;20169;-63
2021/05/13 04:19:37;;;;;;;100.10;45.23;;;8.20;99.90;;;;;;5007353;28;20548;-64
2021/05/13 04:22:03;;;;;;;105.90;45.10;;;8.20;99.90;;;;;;5012168;28;20227;-63
2021/05/13 04:24:29;;;;;;;102.43;45.67;;;8.20;99.90;;;;;;4999306;28;20268;-64
2021/05/13 04:26:55;;;;;;;90.77;42.70;;;8.20;99.90;;;;;;4992861;28;20180;-64
2021/05/13 04:29:21;;;;;;;84.00;41.00;;;8.20;99.90;;;;;;5008048;28;20657;-65
2021/05/13 04:31:46;;;;;;;84.03;42.10;;;8.20;99.90;;;;;;4992534;28;20185;-64
2021/05/13 04:34:12;;;;;;;238.43;51.53;;;8.20;99.90;;;;;;5008123;28;20481;-65
2021/05/13 04:36:38;;;;;;;84.53;41.23;;;8.20;99.90;;;;;;5012292;28;20180;-65
2021/05/13 04:39:04;;;;;;;86.07;42.17;;;8.30;99.90;;;;;;4998382;28;20268;-65
2021/05/13 04:41:31;;;;;;;102.33;50.03;;;8.50;99.90;;;;;;5009792;28;20180;-64
2021/05/13 04:43:57;;;;;;;109.23;53.77;;;8.80;99.90;;;;;;4999095;28;20207;-64
2021/05/13 04:46:26;;;;;;;105.83;50.20;;;8.90;99.90;;;;;;4992670;28;20173;-65
2021/05/13 04:51:19;;;;;;;93.93;44.83;;;9.60;99.90;;;;;;5011625;28;20184;-65
2021/05/13 04:53:47;;;;;;;88.67;44.27;;;9.80;99.90;;;;;;5002294;28;20685;-64
2021/05/13 04:56:13;;;;;;;76.60;43.80;;;10.00;99.90;;;;;;5011438;28;20215;-64
2021/05/13 04:58:39;;;;;;;66.63;38.97;;;10.30;99.90;;;;;;4995799;28;20565;-65
2021/05/13 05:01:05;;;;;;;61.47;37.10;;;10.40;99.90;;;;;;4991510;28;20180;-64
2021/05/13 05:03:30;;;;;;;61.43;37.23;;;10.10;99.90;;;;;;5006424;28;20637;-63
2021/05/13 05:05:56;;;;;;;61.30;36.27;;;10.30;99.90;;;;;;5012125;28;20716;-65
2021/05/13 05:08:22;;;;;;;58.20;37.63;;;10.10;99.90;;;;;;4998911;28;20196;-65
2021/05/13 05:10:47;;;;;;;62.37;37.83;;;10.10;99.90;;;;;;4991925;28;20268;-64
2021/05/13 05:13:13;;;;;;;58.10;34.77;;;10.00;99.90;;;;;;4992199;28;20247;-64
2021/05/13 05:15:38;;;;;;;58.77;36.03;;;10.10;99.90;;;;;;5003878;28;20610;-64
2021/05/13 05:18:04;;;;;;;50.27;34.77;;;10.10;99.90;;;;;;5002338;28;20177;-65
2021/05/13 05:20:30;;;;;;;47.07;32.53;;;10.20;99.90;;;;;;4991873;28;20733;-65
2021/05/13 05:22:55;;;;;;;48.37;31.40;;;10.20;99.90;;;;;;4999537;28;20292;-63
2021/05/13 05:25:21;;;;;;;43.27;31.53;;;10.50;99.90;;;;;;5011428;28;20211;-64
2021/05/13 05:27:47;;;;;;;43.67;31.00;;;10.60;99.90;;;;;;4998634;28;20186;-64
2021/05/13 05:30:13;;;;;;;37.13;29.40;;;10.80;99.90;;;;;;4991782;28;20603;-65
2021/05/13 05:32:39;;;;;;;40.53;30.87;;;10.90;99.90;;;;;;4994680;28;20185;-65
2021/05/13 05:35:05;;;;;;;36.27;29.40;;;11.10;99.90;;;;;;4991807;28;20270;-64
2021/05/13 05:37:32;;;;;;;32.40;26.23;;;11.30;99.90;;;;;;4991789;28;20189;-65
2021/05/13 05:39:58;;;;;;;31.97;27.07;;;11.50;99.90;;;;;;4991797;28;20176;-65
2021/05/13 05:42:23;;;;;;;33.23;25.47;;;11.70;99.90;;;;;;4999910;28;20306;-64
2021/05/13 05:44:50;;;;;;;27.87;23.40;;;11.90;99.90;;;;;;5009924;28;20290;-65
2021/05/13 05:47:18;;;;;;;32.03;23.27;;;12.00;99.90;;;;;;5009175;28;20192;-65
2021/05/13 05:49:44;;;;;;;25.23;22.40;;;12.00;99.90;;;;;;5004596;28;20315;-66
2021/05/13 05:52:11;;;;;;;23.00;20.63;;;12.10;99.90;;;;;;4991764;28;20263;-64
2021/05/13 05:54:36;;;;;;;23.10;19.97;;;12.30;99.90;;;;;;4996976;28;20216;-64
2021/05/13 05:57:02;;;;;;;21.33;19.13;;;12.50;99.90;;;;;;5003429;28;20259;-64
2021/05/13 05:59:28;;;;;;;19.67;17.67;;;12.50;99.90;;;;;;4997805;28;20181;-64
2021/05/13 06:01:53;;;;;;;19.93;17.27;;;12.70;99.90;;;;;;5013458;28;20183;-65
2021/05/13 06:04:19;;;;;;;18.73;16.83;;;12.90;99.90;;;;;;5013896;28;20199;-64
2021/05/13 06:06:44;;;;;;;17.67;15.90;;;13.00;99.90;;;;;;4994159;28;20213;-64
2021/05/13 06:09:10;;;;;;;17.77;16.10;;;13.30;99.90;;;;;;5010053;28;20203;-65
2021/05/13 06:11:36;;;;;;;16.33;14.60;;;13.50;99.90;;;;;;5014342;28;20185;-65
2021/05/13 06:14:02;;;;;;;16.80;15.10;;;13.60;99.90;;;;;;5009830;28;20211;-64
2021/05/13 06:16:28;;;;;;;18.17;14.93;;;13.70;99.90;;;;;;5014828;28;20567;-65
2021/05/13 06:18:56;;;;;;;17.33;15.53;;;13.80;99.90;;;;;;4999291;28;20177;-65
2021/05/13 06:21:22;;;;;;;15.80;14.10;;;13.90;99.90;;;;;;4994924;28;20643;-64
2021/05/13 06:23:54;;;;;;;16.10;14.43;;;14.40;99.90;;;;;;5008596;28;20200;-65
2021/05/13 06:26:28;;;;;;;18.33;15.83;;;14.70;99.90;;;;;;5014611;28;20583;-65
2021/05/13 06:28:54;;;;;;;17.70;15.50;;;15.00;99.90;;;;;;5000094;28;20180;-65
2021/05/13 06:31:20;;;;;;;18.33;16.43;;;15.20;99.90;;;;;;4993178;28;20697;-65
2021/05/13 06:33:46;;;;;;;21.17;18.20;;;15.10;99.90;;;;;;5007116;28;20219;-64
2021/05/13 06:36:11;;;;;;;20.57;18.30;;;15.00;99.90;;;;;;5014458;28;20595;-64
2021/05/13 06:38:37;;;;;;;20.83;18.70;;;15.20;99.90;;;;;;5003386;28;20227;-64
2021/05/13 06:41:06;;;;;;;17.10;15.30;;;15.40;99.90;;;;;;4994376;28;20180;-64
2021/05/13 06:43:36;;;;;;;16.17;14.43;;;15.60;99.90;;;;;;5010082;28;20190;-65
2021/05/13 06:46:03;;;;;;;16.90;14.50;;;15.80;99.90;;;;;;4994503;28;20177;-65
2021/05/13 06:48:28;;;;;;;16.53;14.90;;;16.00;99.90;;;;;;5011036;28;20326;-65
2021/05/13 06:50:54;;;;;;;17.67;14.50;;;16.20;99.90;;;;;;5000034;28;20690;-65
2021/05/13 06:53:19;;;;;;;14.77;13.27;;;16.40;99.90;;;;;;5006918;28;20551;-65
2021/05/13 06:55:51;;;;;;;15.37;13.50;;;16.70;99.90;;;;;;5011966;28;20396;-66
2021/05/13 06:58:17;;;;;;;14.23;12.43;;;16.80;99.90;;;;;;5013499;28;20176;-64
2021/05/13 07:00:42;;;;;;;14.90;13.33;;;16.90;99.90;;;;;;5013955;28;20267;-65
2021/05/13 07:03:08;;;;;;;13.77;12.47;;;17.10;99.90;;;;;;5003560;28;20181;-64
2021/05/13 07:05:33;;;;;;;13.57;12.17;;;17.30;99.90;;;;;;4998820;28;20278;-65
2021/05/13 07:07:59;;;;;;;13.13;11.93;;;17.60;99.90;;;;;;5013562;28;20182;-65
2021/05/13 07:10:25;;;;;;;15.93;11.57;;;18.10;99.90;;;;;;5009983;28;20263;-65
2021/05/13 07:12:50;;;;;;;15.03;10.67;;;18.60;99.90;;;;;;4992401;28;20254;-66
2021/05/13 07:15:16;;;;;;;11.35;10.18;;;19.10;99.90;;;;;;4999530;28;20250;-64
2021/05/13 07:17:41;;;;;;;12.40;11.23;;;19.40;99.90;;;;;;5013504;28;20224;-65
2021/05/13 07:20:07;;;;;;;12.43;11.23;;;19.50;99.90;;;;;;5012983;28;20199;-66
2021/05/13 07:22:33;;;;;;;11.77;10.45;;;19.50;99.90;;;;;;4994198;28;20188;-66
2021/05/13 07:24:59;;;;;;;11.02;10.13;;;19.70;99.90;;;;;;4998749;28;20204;-64
2021/05/13 07:27:24;;;;;;;10.60;9.52;;;19.50;99.90;;;;;;5013316;28;20568;-65
2021/05/13 07:29:50;;;;;;;10.60;9.50;;;19.50;99.90;;;;;;5009626;28;20189;-67
2021/05/13 07:32:16;;;;;;;9.18;8.38;;;19.70;99.90;;;;;;4993726;28;20649;-64
2021/05/13 07:34:41;;;;;;;8.95;8.15;;;20.10;99.90;;;;;;4995043;28;20224;-65
2021/05/13 07:37:07;;;;;;;9.90;7.40;;;20.50;99.90;;;;;;5013194;28;20584;-64
2021/05/13 07:39:33;;;;;;;8.65;7.80;;;21.10;99.90;;;;;;5012790;28;20169;-65
2021/05/13 07:41:58;;;;;;;9.07;8.13;;;21.50;99.90;;;;;;4993460;28;20176;-66
2021/05/13 07:44:25;;;;;;;7.85;7.15;;;21.50;99.90;;;;;;4993552;28;20550;-66
2021/05/13 07:46:51;;;;;;;7.78;7.00;;;21.50;99.90;;;;;;5008810;28;20180;-65
2021/05/13 07:49:16;;;;;;;8.30;6.97;;;21.80;99.90;;;;;;4993717;28;20199;-66
2021/05/13 07:51:43;;;;;;;7.22;6.63;;;22.20;99.90;;;;;;4996116;28;20196;-66
2021/05/13 07:54:10;;;;;;;8.02;7.20;;;22.60;99.90;;;;;;4996124;28;20208;-65
2021/05/13 07:56:36;;;;;;;7.93;7.18;;;22.70;99.90;;;;;;5005269;28;20695;-65
2021/05/13 07:59:02;;;;;;;7.38;6.30;;;22.80;99.90;;;;;;5010899;28;20168;-66
2021/05/13 08:01:27;;;;;;;8.60;6.57;;;23.10;99.90;;;;;;5012059;28;20176;-67
2021/05/13 08:03:53;;;;;;;6.90;5.88;;;23.00;99.90;;;;;;5012402;28;20571;-65
2021/05/13 08:06:18;;;;;;;7.10;5.82;;;23.00;99.90;;;;;;4993287;28;20195;-66
2021/05/13 08:08:44;;;;;;;7.20;6.50;;;22.90;99.90;;;;;;4993167;28;20204;-66
2021/05/13 08:11:10;;;;;;;6.78;6.13;;;22.90;99.90;;;;;;5010065;28;20176;-67
2021/05/13 08:13:35;;;;;;;6.90;6.20;;;22.70;99.90;;;;;;5002603;28;20338;-64
2021/05/13 08:16:02;;;;;;;6.55;5.95;;;22.60;99.90;;;;;;4992954;28;20263;-66
2021/05/13 08:18:28;;;;;;;6.15;5.55;;;22.80;99.90;;;;;;4999989;28;20626;-66
2021/05/13 08:20:54;;;;;;;6.20;5.60;;;22.90;99.90;;;;;;5012266;28;20180;-65
2021/05/13 08:23:19;;;;;;;6.50;6.00;;;22.70;99.90;;;;;;5005634;28;20169;-65
2021/05/13 08:25:45;;;;;;;6.10;5.50;;;22.90;99.90;;;;;;4992659;28;20280;-65
2021/05/13 08:28:11;;;;;;;5.70;5.18;;;23.00;99.90;;;;;;5005271;28;20714;-65
2021/05/13 08:30:36;;;;;;;5.22;4.72;;;23.40;99.90;;;;;;5012108;28;20172;-64
2021/05/13 08:33:02;;;;;;;6.55;4.63;;;23.70;99.90;;;;;;5000976;28;20185;-65
2021/05/13 08:35:28;;;;;;;5.53;5.03;;;23.90;99.90;;;;;;4992164;28;20271;-66
2021/05/13 08:37:53;;;;;;;5.72;4.70;;;24.30;99.90;;;;;;5001741;28;20184;-66
2021/05/13 08:40:20;;;;;;;5.78;4.85;;;24.10;99.90;;;;;;5011944;28;20182;-67
2021/05/13 08:42:46;;;;;;;4.75;4.28;;;23.70;99.90;;;;;;5004660;28;20627;-66
2021/05/13 08:45:12;;;;;;;4.85;4.20;;;23.50;99.90;;;;;;4992418;28;20263;-65
2021/05/13 08:47:39;;;;;;;5.45;4.32;;;23.80;99.90;;;;;;4997258;28;20627;-67
2021/05/13 08:50:06;;;;;;;4.82;4.40;;;23.90;99.90;;;;;;5002078;28;20186;-67
2021/05/13 08:52:32;;;;;;;4.95;4.10;;;24.20;99.90;;;;;;5007157;28;20180;-66
2021/05/13 08:55:03;;;;;;;5.13;4.22;;;24.70;99.90;;;;;;4992804;28;20193;-65
2021/05/13 08:57:28;;;;;;;6.72;4.65;;;25.10;99.90;;;;;;5003668;28;20211;-66
2021/05/13 08:59:56;;;;;;;5.00;4.55;;;25.30;99.90;;;;;;5011703;28;20661;-66
2021/05/13 09:02:22;;;;;;;7.60;4.35;;;25.10;99.90;;;;;;5001408;28;20172;-68
2021/05/13 09:04:52;;;;;;;5.90;3.78;;;25.00;99.90;;;;;;4992852;28;20593;-66
2021/05/13 09:07:25;;;;;;;4.50;4.00;;;25.20;99.90;;;;;;5001231;28;20646;-67
2021/05/13 09:10:00;;;;;;;5.82;4.35;;;25.60;99.90;;;;;;5005188;28;20271;-66
2021/05/13 09:12:30;;;;;;;5.85;4.22;;;26.10;99.90;;;;;;4996988;28;20176;-66
2021/05/13 09:15:01;;;;;;;5.95;3.53;;;26.10;99.90;;;;;;4991233;28;20201;-65
2021/05/13 09:17:29;;;;;;;5.30;4.05;;;26.20;99.90;;;;;;5009541;28;20179;-66
2021/05/13 09:19:55;;;;;;;5.57;3.35;;;26.70;99.90;;;;;;4996460;28;20181;-65
2021/05/13 09:22:24;;;;;;;5.22;3.20;;;27.00;99.90;;;;;;4991789;28;20185;-65
2021/05/13 09:24:52;;;;;;;4.47;4.03;;;26.90;99.90;;;;;;5004655;28;20236;-65
2021/05/13 09:27:24;;;;;;;5.47;4.07;;;26.60;99.90;;;;;;4993630;28;20184;-66
2021/05/13 09:30:22;;;;;;;7.65;3.95;;;26.40;99.90;;;;;;5005422;28;20225;-65
2021/05/13 09:32:50;;;;;;;5.07;4.20;;;26.30;99.90;;;;;;5007574;28;20568;-65
2021/05/13 09:35:28;;;;;;;5.38;3.88;;;26.10;99.90;;;;;;4999681;28;20270;-65
2021/05/13 09:38:04;;;;;;;4.70;3.50;;;26.30;99.90;;;;;;4995845;28;20247;-65
2021/05/13 09:40:50;;;;;;;5.53;3.42;;;26.40;99.90;;;;;;5011835;28;20179;-65
2021/05/13 09:43:23;;;;;;;4.75;2.67;;;26.50;99.90;;;;;;5013561;28;20225;-65
2021/05/13 09:45:53;;;;;;;7.43;3.05;;;26.90;99.90;;;;;;5015225;28;20184;-65
2021/05/13 09:48:39;;;;;;;6.47;3.40;;;27.20;99.90;;;;;;5011837;28;20191;-65
2021/05/13 09:51:29;;;;;;;5.45;3.55;;;27.50;99.90;;;;;;4995452;28;20187;-65
2021/05/13 09:54:04;;;;;;;4.13;3.30;;;27.80;99.90;;;;;;5011985;28;20208;-64
2021/05/13 09:56:31;;;;;;;6.57;3.25;;;27.90;99.90;;;;;;5014959;28;20669;-65
2021/05/13 09:58:57;;;;;;;3.47;2.90;;;28.00;99.90;;;;;;4998738;28;20259;-65
2021/05/13 10:01:35;;;;;;;3.80;2.72;;;28.00;99.90;;;;;;4995159;28;20172;-65
2021/05/13 10:04:05;;;;;;;5.50;3.42;;;28.40;99.90;;;;;;5011021;28;20281;-65
2021/05/13 10:06:31;;;;;;;4.95;2.95;;;28.30;99.90;;;;;;5015109;28;20176;-65
2021/05/13 10:08:56;;;;;;;4.38;3.00;;;28.40;99.90;;;;;;4999953;28;20188;-65
2021/05/13 10:11:22;;;;;;;4.88;2.80;;;28.50;99.90;;;;;;4996182;28;20172;-65
2021/05/13 10:13:48;;;;;;;3.83;2.50;;;28.20;99.90;;;;;;5014641;28;20696;-64
2021/05/13 10:16:14;;;;;;;4.93;3.50;;;28.30;99.20;;;;;;5008740;28;20424;-65
2021/05/13 10:18:42;;;;;;;4.30;3.40;;;28.30;98.50;;;;;;4995173;28;20160;-65
2021/05/13 10:21:20;;;;;;;6.47;3.47;;;28.20;98.40;;;;;;4998466;28;20187;-65
2021/05/13 10:23:51;;;;;;;5.30;3.00;;;28.50;98.80;;;;;;5014407;28;20560;-65
2021/05/13 10:26:41;;;;;;;6.93;3.90;;;28.80;98.90;;;;;;4999872;28;20251;-65
2021/05/13 10:29:19;;;;;;;5.88;3.28;;;29.00;99.10;;;;;;5014298;28;20168;-64
2021/05/13 10:31:45;;;;;;;5.93;4.00;;;29.10;96.60;;;;;;5000484;28;20180;-66
2021/05/13 10:34:11;;;;;;;5.70;3.55;;;29.00;99.40;;;;;;4995006;28;20216;-65
2021/05/13 10:36:37;;;;;;;6.40;3.17;;;29.50;96.60;;;;;;4994742;28;20208;-65
2021/05/13 10:39:10;;;;;;;3.60;2.88;;;29.70;95.40;;;;;;4994672;28;20540;-65
2021/05/13 10:41:43;;;;;;;6.53;3.25;;;29.40;98.20;;;;;;4993418;28;20181;-65
2021/05/13 10:44:09;;;;;;;4.00;3.20;;;29.10;94.30;;;;;;4994634;28;20197;-65
2021/05/13 10:46:39;;;;;;;7.93;3.40;;;28.60;94.80;;;;;;5011679;28;20242;-65
2021/05/13 10:49:19;;;;;;;9.15;3.45;;;28.70;96.50;;;;;;5014028;28;20173;-65
2021/05/13 10:51:49;;;;;;;5.35;3.35;;;28.80;97.80;;;;;;4997450;28;20246;-65
2021/05/13 10:54:27;;;;;;;6.55;3.83;;;28.80;95.90;;;;;;5007603;28;20208;-66
2021/05/13 10:57:20;;;;;;;4.68;3.05;;;28.90;94.10;;;;;;4994489;28;20181;-67
2021/05/13 11:00:07;;;;;;;5.68;3.35;;;28.00;94.80;;;;;;5001834;28;20181;-67
2021/05/13 11:02:51;;;;;;;4.18;3.30;;;27.40;93.90;;;;;;5006828;28;20200;-64
2021/05/13 11:05:30;;;;;;;6.28;3.70;;;27.10;96.70;;;;;;5000644;28;20197;-65
2021/05/13 11:08:03;;;;;;;4.75;3.08;;;27.20;93.30;;;;;;4994399;28;20531;-67
2021/05/13 11:10:47;;;;;;;8.48;3.75;;;27.30;94.40;;;;;;5007390;28;20172;-67
2021/05/13 11:13:13;;;;;;;4.85;3.13;;;27.60;96.90;;;;;;5013518;28;20168;-67
2021/05/13 11:15:42;;;;;;;5.53;3.53;;;27.70;94.50;;;;;;4998586;28;20213;-64
2021/05/13 11:18:11;;;;;;;5.50;3.55;;;27.70;95.50;;;;;;4994023;28;20181;-65
2021/05/13 11:20:44;;;;;;;5.22;3.63;;;27.90;95.10;;;;;;5006982;28;20172;-66
2021/05/13 11:23:14;;;;;;;4.20;3.10;;;27.50;93.00;;;;;;5012067;28;20176;-66
2021/05/13 11:25:50;;;;;;;4.75;3.63;;;27.30;95.80;;;;;;4993773;28;20536;-66
2021/05/13 11:28:57;;;;;;;4.32;3.40;;;27.20;93.90;;;;;;4995054;28;20259;-64
2021/05/13 11:31:22;;;;;;;5.88;3.25;;;27.00;93.40;;;;;;5012657;28;20205;-66
2021/05/13 11:33:48;;;;;;;4.32;3.20;;;26.90;96.50;;;;;;5006354;28;20208;-65
2021/05/13 11:36:16;;;;;;;7.13;3.13;;;27.60;92.00;;;;;;4993462;28;20205;-64
2021/05/13 11:38:43;;;;;;;6.22;3.28;;;27.70;93.60;;;;;;4997010;28;20254;-64
2021/05/13 11:41:09;;;;;;;5.82;2.92;;;27.30;93.40;;;;;;5012653;28;20200;-66
2021/05/13 11:43:39;;;;;;;4.22;3.30;;;27.60;96.50;;;;;;5010531;28;20199;-65
2021/05/13 11:46:07;;;;;;;7.35;3.42;;;28.00;91.90;;;;;;4993207;28;20188;-65
2021/05/13 11:48:34;;;;;;;3.60;2.63;;;27.80;90.80;;;;;;5009823;28;20180;-64
2021/05/13 11:51:12;;;;;;;5.38;2.90;;;27.70;92.60;;;;;;5011796;28;20176;-64
2021/05/13 11:53:40;;;;;;;4.28;3.03;;;28.20;91.60;;;;;;5003324;28;20192;-66
2021/05/13 11:56:08;;;;;;;3.97;3.00;;;28.00;90.70;;;;;;4994331;28;20236;-67
2021/05/13 11:58:42;;;;;;;4.35;2.90;;;27.80;92.80;;;;;;5012828;28;20200;-66
2021/05/13 12:01:14;;;;;;;5.57;3.22;;;27.60;91.40;;;;;;5009968;28;20675;-66
2021/05/13 12:03:41;;;;;;;4.70;3.40;;;27.00;91.80;;;;;;4993241;28;20179;-65
2021/05/13 12:06:06;;;;;;;5.63;3.03;;;26.70;91.20;;;;;;4993834;28;20177;-66
2021/05/13 12:08:34;;;;;;;6.07;3.05;;;26.80;93.00;;;;;;5012574;28;20187;-65
2021/05/13 12:11:00;;;;;;;3.85;2.70;;;26.80;92.70;;;;;;5011988;28;20530;-65
2021/05/13 12:13:29;;;;;;;3.78;3.33;;;26.70;94.10;;;;;;4993276;28;20721;-65
2021/05/13 12:16:02;;;;;;;4.60;2.80;;;27.20;92.20;;;;;;4992989;28;20219;-66
2021/05/13 12:18:28;;;;;;;4.57;3.53;;;27.60;90.60;;;;;;5011404;28;20172;-65
2021/05/13 12:20:54;;;;;;;3.75;3.08;;;28.00;88.30;;;;;;4997179;28;20260;-64
2021/05/13 12:23:20;;;;;;;3.10;2.42;;;28.70;89.10;;;;;;4992563;28;20251;-64
2021/05/13 12:25:46;;;;;;;4.60;2.55;;;28.90;91.80;;;;;;5005246;28;20716;-66
2021/05/13 12:28:12;;;;;;;3.42;2.50;;;29.10;88.40;;;;;;5012091;28;20526;-65
2021/05/13 12:30:37;;;;;;;4.28;3.03;;;29.20;87.00;;;;;;5000591;28;20199;-65
2021/05/13 12:33:21;;;;;;;5.18;3.00;;;29.10;90.50;;;;;;4996668;28;20211;-64
2021/05/13 12:35:51;;;;;;;4.80;2.97;;;29.30;87.60;;;;;;5012040;28;20216;-65
2021/05/13 12:38:19;;;;;;;3.33;2.10;;;29.50;87.60;;;;;;5006386;28;20169;-66
2021/05/13 12:40:45;;;;;;;3.20;2.08;;;30.10;90.80;;;;;;4992142;28;20177;-66
2021/05/13 12:43:17;;;;;;;3.33;2.45;;;30.70;83.90;;;;;;4996224;28;20207;-66
2021/05/13 12:45:44;;;;;;;5.07;2.22;;;30.50;82.00;;;;;;5012134;28;20665;-66
2021/05/13 12:48:11;;;;;;;5.90;2.28;;;30.10;77.50;;;;;;5007328;28;20191;-66
2021/05/13 12:50:37;;;;;;;4.18;2.45;;;30.00;82.80;;;;;;5011561;28;20759;-66